sensor_id;sensor_type;location;lat;lon;timestamp;pressure;altitude;pressure_sealevel;temperature
67966;BMP280;54749;47.850;9.002;2022-11-15T00:01:29;95847.47;;;3.86
67966;BMP280;54749;47.850;9.002;2022-11-15T00:04:15;95858.44;;;3.84
67966;BMP280;54749;47.850;9.002;2022-11-15T00:07:01;95868.44;;;3.84
67966;BMP280;54749;47.850;9.002;2022-11-15T00:09:46;95878.31;;;3.85
67966;BMP280;54749;47.850;9.002;2022-11-15T00:12:32;95865.69;;;3.88
67966;BMP280;54749;47.850;9.002;2022-11-15T00:15:17;95865.69;;;3.88
67966;BMP280;54749;47.850;9.002;2022-11-15T00:18:03;95859.72;;;3.91
67966;BMP280;54749;47.850;9.002;2022-11-15T00:20:49;95866.97;;;3.80
67966;BMP280;54749;47.850;9.002;2022-11-15T00:23:34;95868.16;;;3.73
67966;BMP280;54749;47.850;9.002;2022-11-15T00:26:19;95862.09;;;3.62
67966;BMP280;54749;47.850;9.002;2022-11-15T00:29:05;95844.84;;;3.58
67966;BMP280;54749;47.850;9.002;2022-11-15T00:31:50;95859.50;;;3.64
67966;BMP280;54749;47.850;9.002;2022-11-15T00:34:36;95860.19;;;3.67
67966;BMP280;54749;47.850;9.002;2022-11-15T00:37:21;95850.19;;;3.67
67966;BMP280;54749;47.850;9.002;2022-11-15T00:40:08;95849.50;;;3.64
67966;BMP280;54749;47.850;9.002;2022-11-15T00:42:54;95853.72;;;3.63
67966;BMP280;54749;47.850;9.002;2022-11-15T00:45:40;95852.59;;;3.68
67966;BMP280;54749;47.850;9.002;2022-11-15T00:48:25;95846.47;;;3.74
67966;BMP280;54749;47.850;9.002;2022-11-15T00:51:11;95838.03;;;3.76
67966;BMP280;54749;47.850;9.002;2022-11-15T00:53:56;95861.41;;;3.75
67966;BMP280;54749;47.850;9.002;2022-11-15T00:56:41;95826.25;;;3.78
67966;BMP280;54749;47.850;9.002;2022-11-15T00:59:26;95838.56;;;3.81
67966;BMP280;54749;47.850;9.002;2022-11-15T01:02:12;95827.63;;;3.84
67966;BMP280;54749;47.850;9.002;2022-11-15T01:04:58;95838.34;;;3.85
67966;BMP280;54749;47.850;9.002;2022-11-15T01:07:44;95844.97;;;3.86
67966;BMP280;54749;47.850;9.002;2022-11-15T01:10:29;95867.31;;;3.89
67966;BMP280;54749;47.850;9.002;2022-11-15T01:13:15;95879.22;;;3.84
67966;BMP280;54749;47.850;9.002;2022-11-15T01:16:10;95882.03;;;3.79
67966;BMP280;54749;47.850;9.002;2022-11-15T01:18:56;95876.91;;;3.65
67966;BMP280;54749;47.850;9.002;2022-11-15T01:21:41;95870.69;;;3.57
67966;BMP280;54749;47.850;9.002;2022-11-15T01:24:26;95876.00;;;3.51
67966;BMP280;54749;47.850;9.002;2022-11-15T01:27:12;95872.84;;;3.48
67966;BMP280;54749;47.850;9.002;2022-11-15T01:29:57;95878.88;;;3.44
67966;BMP280;54749;47.850;9.002;2022-11-15T01:32:42;95874.75;;;3.43
67966;BMP280;54749;47.850;9.002;2022-11-15T01:35:28;95866.56;;;3.41
67966;BMP280;54749;47.850;9.002;2022-11-15T01:38:13;95865.91;;;3.37
67966;BMP280;54749;47.850;9.002;2022-11-15T01:40:59;95865.31;;;3.32
67966;BMP280;54749;47.850;9.002;2022-11-15T01:43:47;95870.22;;;3.34
67966;BMP280;54749;47.850;9.002;2022-11-15T01:46:36;95860.81;;;3.39
67966;BMP280;54749;47.850;9.002;2022-11-15T01:49:23;95863.88;;;3.44
67966;BMP280;54749;47.850;9.002;2022-11-15T01:52:13;95852.84;;;3.48
67966;BMP280;54749;47.850;9.002;2022-11-15T01:55:13;95857.72;;;3.50
67966;BMP280;54749;47.850;9.002;2022-11-15T01:58:02;95841.81;;;3.51
67966;BMP280;54749;47.850;9.002;2022-11-15T02:00:49;95839.09;;;3.56
67966;BMP280;54749;47.850;9.002;2022-11-15T02:03:42;95835.66;;;3.58
67966;BMP280;54749;47.850;9.002;2022-11-15T02:06:29;95840.66;;;3.58
67966;BMP280;54749;47.850;9.002;2022-11-15T02:09:16;95835.03;;;3.70
67966;BMP280;54749;47.850;9.002;2022-11-15T02:12:02;95825.53;;;3.76
67966;BMP280;54749;47.850;9.002;2022-11-15T02:14:52;95826.75;;;3.84
67966;BMP280;54749;47.850;9.002;2022-11-15T02:26:58;95803.91;;;4.20
67966;BMP280;54749;47.850;9.002;2022-11-15T02:36:10;95787.66;;;4.42
67966;BMP280;54749;47.850;9.002;2022-11-15T02:39:10;95782.03;;;4.39
67966;BMP280;54749;47.850;9.002;2022-11-15T02:42:13;95781.16;;;4.40
67966;BMP280;54749;47.850;9.002;2022-11-15T02:45:25;95762.56;;;4.44
67966;BMP280;54749;47.850;9.002;2022-11-15T02:48:12;95779.28;;;4.43
67966;BMP280;54749;47.850;9.002;2022-11-15T02:51:00;95754.00;;;4.48
67966;BMP280;54749;47.850;9.002;2022-11-15T02:53:45;95757.88;;;4.53
67966;BMP280;54749;47.850;9.002;2022-11-15T02:56:31;95761.00;;;4.56
67966;BMP280;54749;47.850;9.002;2022-11-15T03:06:20;95755.94;;;4.58
67966;BMP280;54749;47.850;9.002;2022-11-15T03:09:28;95762.44;;;4.60
67966;BMP280;54749;47.850;9.002;2022-11-15T03:15:25;95745.41;;;4.67
67966;BMP280;54749;47.850;9.002;2022-11-15T03:18:20;95731.97;;;4.68
67966;BMP280;54749;47.850;9.002;2022-11-15T03:21:09;95735.28;;;4.68
67966;BMP280;54749;47.850;9.002;2022-11-15T03:23:58;95739.41;;;4.69
67966;BMP280;54749;47.850;9.002;2022-11-15T03:26:45;95736.97;;;4.68
67966;BMP280;54749;47.850;9.002;2022-11-15T03:29:35;95733.53;;;4.70
67966;BMP280;54749;47.850;9.002;2022-11-15T03:32:26;95730.84;;;4.73
67966;BMP280;54749;47.850;9.002;2022-11-15T03:35:18;95726.91;;;4.83
67966;BMP280;54749;47.850;9.002;2022-11-15T03:38:24;95720.16;;;4.85
67966;BMP280;54749;47.850;9.002;2022-11-15T03:41:19;95719.78;;;4.90
67966;BMP280;54749;47.850;9.002;2022-11-15T03:44:42;95708.16;;;4.89
67966;BMP280;54749;47.850;9.002;2022-11-15T03:47:41;95718.16;;;4.89
67966;BMP280;54749;47.850;9.002;2022-11-15T03:50:29;95713.53;;;4.84
67966;BMP280;54749;47.850;9.002;2022-11-15T03:53:14;95709.59;;;4.80
67966;BMP280;54749;47.850;9.002;2022-11-15T03:56:00;95699.47;;;4.81
67966;BMP280;54749;47.850;9.002;2022-11-15T03:58:45;95698.59;;;4.82
67966;BMP280;54749;47.850;9.002;2022-11-15T04:01:31;95694.38;;;4.83
67966;BMP280;54749;47.850;9.002;2022-11-15T04:04:16;95697.88;;;4.80
67966;BMP280;54749;47.850;9.002;2022-11-15T04:07:02;95683.63;;;4.81
67966;BMP280;54749;47.850;9.002;2022-11-15T04:09:47;95695.38;;;4.80
67966;BMP280;54749;47.850;9.002;2022-11-15T04:12:47;95696.88;;;4.83
67966;BMP280;54749;47.850;9.002;2022-11-15T04:15:32;95689.38;;;4.83
67966;BMP280;54749;47.850;9.002;2022-11-15T04:18:18;95690.00;;;4.86
67966;BMP280;54749;47.850;9.002;2022-11-15T04:21:03;95688.31;;;4.87
67966;BMP280;54749;47.850;9.002;2022-11-15T04:24:08;95703.94;;;4.90
67966;BMP280;54749;47.850;9.002;2022-11-15T04:26:59;95707.00;;;4.95
67966;BMP280;54749;47.850;9.002;2022-11-15T04:29:45;95701.91;;;4.96
67966;BMP280;54749;47.850;9.002;2022-11-15T04:32:30;95694.22;;;4.99
67966;BMP280;54749;47.850;9.002;2022-11-15T04:35:16;95700.84;;;5.00
67966;BMP280;54749;47.850;9.002;2022-11-15T04:38:02;95690.81;;;5.00
67966;BMP280;54749;47.850;9.002;2022-11-15T04:40:48;95696.63;;;5.01
67966;BMP280;54749;47.850;9.002;2022-11-15T04:43:33;95659.16;;;4.99
67966;BMP280;54749;47.850;9.002;2022-11-15T04:46:19;95679.00;;;5.02
67966;BMP280;54749;47.850;9.002;2022-11-15T04:49:04;95677.41;;;5.01
67966;BMP280;54749;47.850;9.002;2022-11-15T04:51:50;95686.50;;;5.02
67966;BMP280;54749;47.850;9.002;2022-11-15T04:54:35;95673.22;;;5.02
67966;BMP280;54749;47.850;9.002;2022-11-15T04:57:20;95676.59;;;5.01
67966;BMP280;54749;47.850;9.002;2022-11-15T05:00:12;95679.38;;;4.96
67966;BMP280;54749;47.850;9.002;2022-11-15T05:02:58;95689.66;;;4.92
67966;BMP280;54749;47.850;9.002;2022-11-15T05:06:02;95685.72;;;4.88
67966;BMP280;54749;47.850;9.002;2022-11-15T05:08:47;95682.69;;;4.83
67966;BMP280;54749;47.850;9.002;2022-11-15T05:11:33;95682.41;;;4.74
67966;BMP280;54749;47.850;9.002;2022-11-15T05:14:18;95685.41;;;4.65
67966;BMP280;54749;47.850;9.002;2022-11-15T05:17:03;95687.44;;;4.59
67966;BMP280;54749;47.850;9.002;2022-11-15T05:19:50;95687.00;;;4.53
67966;BMP280;54749;47.850;9.002;2022-11-15T05:22:36;95685.56;;;4.49
67966;BMP280;54749;47.850;9.002;2022-11-15T05:25:22;95688.66;;;4.38
67966;BMP280;54749;47.850;9.002;2022-11-15T05:28:08;95684.09;;;4.31
67966;BMP280;54749;47.850;9.002;2022-11-15T05:31:09;95672.03;;;4.24
67966;BMP280;54749;47.850;9.002;2022-11-15T05:33:55;95660.03;;;4.15
67966;BMP280;54749;47.850;9.002;2022-11-15T05:36:42;95679.50;;;4.10
67966;BMP280;54749;47.850;9.002;2022-11-15T05:39:28;95672.50;;;4.02
67966;BMP280;54749;47.850;9.002;2022-11-15T05:42:15;95668.94;;;3.90
67966;BMP280;54749;47.850;9.002;2022-11-15T05:45:02;95676.00;;;3.84
67966;BMP280;54749;47.850;9.002;2022-11-15T05:47:50;95675.00;;;3.86
67966;BMP280;54749;47.850;9.002;2022-11-15T05:50:38;95671.00;;;3.84
67966;BMP280;54749;47.850;9.002;2022-11-15T05:53:25;95663.00;;;3.78
67966;BMP280;54749;47.850;9.002;2022-11-15T05:56:11;95664.94;;;3.73
67966;BMP280;54749;47.850;9.002;2022-11-15T05:58:58;95659.50;;;3.67
67966;BMP280;54749;47.850;9.002;2022-11-15T06:01:44;95666.44;;;3.62
67966;BMP280;54749;47.850;9.002;2022-11-15T06:04:30;95669.16;;;3.57
67966;BMP280;54749;47.850;9.002;2022-11-15T06:07:15;95677.53;;;3.56
67966;BMP280;54749;47.850;9.002;2022-11-15T06:10:01;95672.53;;;3.56
67966;BMP280;54749;47.850;9.002;2022-11-15T06:12:46;95670.94;;;3.55
67966;BMP280;54749;47.850;9.002;2022-11-15T06:15:32;95671.91;;;3.53
67966;BMP280;54749;47.850;9.002;2022-11-15T06:18:19;95675.13;;;3.40
67966;BMP280;54749;47.850;9.002;2022-11-15T06:21:05;95668.69;;;3.36
67966;BMP280;54749;47.850;9.002;2022-11-15T06:23:50;95675.31;;;3.37
67966;BMP280;54749;47.850;9.002;2022-11-15T06:26:35;95666.91;;;3.38
67966;BMP280;54749;47.850;9.002;2022-11-15T06:29:21;95671.75;;;3.41
67966;BMP280;54749;47.850;9.002;2022-11-15T06:32:06;95665.94;;;3.40
67966;BMP280;54749;47.850;9.002;2022-11-15T06:34:51;95653.22;;;3.45
67966;BMP280;54749;47.850;9.002;2022-11-15T06:37:37;95657.16;;;3.49
67966;BMP280;54749;47.850;9.002;2022-11-15T06:40:22;95661.44;;;3.62
67966;BMP280;54749;47.850;9.002;2022-11-15T06:43:07;95644.97;;;3.73
67966;BMP280;54749;47.850;9.002;2022-11-15T06:45:53;95655.56;;;3.91
67966;BMP280;54749;47.850;9.002;2022-11-15T06:48:39;95648.31;;;4.02
67966;BMP280;54749;47.850;9.002;2022-11-15T06:51:24;95636.47;;;4.19
67966;BMP280;54749;47.850;9.002;2022-11-15T06:54:09;95635.97;;;4.28
67966;BMP280;54749;47.850;9.002;2022-11-15T06:56:54;95638.94;;;4.48
67966;BMP280;54749;47.850;9.002;2022-11-15T06:59:40;95633.88;;;4.63
67966;BMP280;54749;47.850;9.002;2022-11-15T07:02:26;95633.69;;;4.79
67966;BMP280;54749;47.850;9.002;2022-11-15T07:05:12;95632.50;;;4.98
67966;BMP280;54749;47.850;9.002;2022-11-15T07:07:58;95622.81;;;5.20
67966;BMP280;54749;47.850;9.002;2022-11-15T07:10:44;95621.44;;;5.41
67966;BMP280;54749;47.850;9.002;2022-11-15T07:13:31;95618.06;;;5.68
67966;BMP280;54749;47.850;9.002;2022-11-15T07:16:19;95623.34;;;5.90
67966;BMP280;54749;47.850;9.002;2022-11-15T07:19:04;95631.84;;;6.13
67966;BMP280;54749;47.850;9.002;2022-11-15T07:21:50;95621.69;;;6.40
67966;BMP280;54749;47.850;9.002;2022-11-15T07:24:35;95616.25;;;6.70
67966;BMP280;54749;47.850;9.002;2022-11-15T07:27:21;95611.00;;;6.98
67966;BMP280;54749;47.850;9.002;2022-11-15T07:30:07;95600.06;;;7.34
67966;BMP280;54749;47.850;9.002;2022-11-15T07:32:59;95587.75;;;7.76
67966;BMP280;54749;47.850;9.002;2022-11-15T07:35:45;95580.84;;;8.13
67966;BMP280;54749;47.850;9.002;2022-11-15T07:38:34;95585.94;;;8.45
67966;BMP280;54749;47.850;9.002;2022-11-15T07:41:26;95584.97;;;8.69
67966;BMP280;54749;47.850;9.002;2022-11-15T07:44:12;95582.31;;;8.81
67966;BMP280;54749;47.850;9.002;2022-11-15T07:46:57;95578.78;;;8.94
67966;BMP280;54749;47.850;9.002;2022-11-15T07:49:43;95582.78;;;9.08
67966;BMP280;54749;47.850;9.002;2022-11-15T07:52:28;95577.72;;;9.18
67966;BMP280;54749;47.850;9.002;2022-11-15T07:55:13;95579.53;;;9.38
67966;BMP280;54749;47.850;9.002;2022-11-15T07:58:10;95581.56;;;9.54
67966;BMP280;54749;47.850;9.002;2022-11-15T08:00:56;95587.03;;;9.70
67966;BMP280;54749;47.850;9.002;2022-11-15T08:03:41;95568.31;;;9.83
67966;BMP280;54749;47.850;9.002;2022-11-15T08:06:27;95567.38;;;9.95
67966;BMP280;54749;47.850;9.002;2022-11-15T08:09:13;95576.50;;;10.06
67966;BMP280;54749;47.850;9.002;2022-11-15T08:11:59;95576.31;;;10.18
67966;BMP280;54749;47.850;9.002;2022-11-15T08:14:44;95568.19;;;10.35
67966;BMP280;54749;47.850;9.002;2022-11-15T08:17:29;95561.06;;;10.60
67966;BMP280;54749;47.850;9.002;2022-11-15T08:20:17;95562.63;;;10.81
67966;BMP280;54749;47.850;9.002;2022-11-15T08:23:05;95546.63;;;11.29
67966;BMP280;54749;47.850;9.002;2022-11-15T08:25:50;95545.34;;;11.99
67966;BMP280;54749;47.850;9.002;2022-11-15T08:28:35;95537.69;;;13.09
67966;BMP280;54749;47.850;9.002;2022-11-15T08:31:21;95508.53;;;14.83
67966;BMP280;54749;47.850;9.002;2022-11-15T08:34:06;95500.22;;;16.64
67966;BMP280;54749;47.850;9.002;2022-11-15T08:36:51;95481.44;;;18.07
67966;BMP280;54749;47.850;9.002;2022-11-15T08:39:37;95475.13;;;18.17
67966;BMP280;54749;47.850;9.002;2022-11-15T08:42:22;95487.19;;;18.09
67966;BMP280;54749;47.850;9.002;2022-11-15T08:45:08;95508.56;;;17.56
67966;BMP280;54749;47.850;9.002;2022-11-15T08:47:54;95492.34;;;18.01
67966;BMP280;54749;47.850;9.002;2022-11-15T08:50:39;95472.91;;;19.91
67966;BMP280;54749;47.850;9.002;2022-11-15T08:53:24;95451.03;;;22.20
67966;BMP280;54749;47.850;9.002;2022-11-15T08:56:12;95452.56;;;23.78
67966;BMP280;54749;47.850;9.002;2022-11-15T08:58:58;95451.88;;;24.61
67966;BMP280;54749;47.850;9.002;2022-11-15T09:01:44;95424.56;;;25.30
67966;BMP280;54749;47.850;9.002;2022-11-15T09:04:29;95408.31;;;26.05
67966;BMP280;54749;47.850;9.002;2022-11-15T09:07:15;95432.06;;;26.42
67966;BMP280;54749;47.850;9.002;2022-11-15T09:10:01;95441.28;;;26.67
67966;BMP280;54749;47.850;9.002;2022-11-15T09:12:47;95460.13;;;26.96
67966;BMP280;54749;47.850;9.002;2022-11-15T09:15:35;95459.91;;;27.20
67966;BMP280;54749;47.850;9.002;2022-11-15T09:18:20;95464.16;;;26.70
67966;BMP280;54749;47.850;9.002;2022-11-15T09:21:08;95458.75;;;26.82
67966;BMP280;54749;47.850;9.002;2022-11-15T09:23:53;95477.13;;;26.70
67966;BMP280;54749;47.850;9.002;2022-11-15T09:26:39;95478.41;;;27.23
67966;BMP280;54749;47.850;9.002;2022-11-15T09:29:25;95477.66;;;26.71
67966;BMP280;54749;47.850;9.002;2022-11-15T09:32:10;95503.47;;;25.22
67966;BMP280;54749;47.850;9.002;2022-11-15T09:34:57;95520.09;;;23.75
67966;BMP280;54749;47.850;9.002;2022-11-15T09:37:42;95532.31;;;23.05
67966;BMP280;54749;47.850;9.002;2022-11-15T09:40:31;95537.22;;;22.37
67966;BMP280;54749;47.850;9.002;2022-11-15T09:43:26;95539.56;;;22.38
67966;BMP280;54749;47.850;9.002;2022-11-15T09:49:15;95542.59;;;21.83
67966;BMP280;54749;47.850;9.002;2022-11-15T09:52:03;95533.44;;;21.81
67966;BMP280;54749;47.850;9.002;2022-11-15T09:54:35;95531.03;;;22.25
67966;BMP280;54749;47.850;9.002;2022-11-15T10:02:58;95505.16;;;23.83
67966;BMP280;54749;47.850;9.002;2022-11-15T10:05:29;95497.78;;;24.29
67966;BMP280;54749;47.850;9.002;2022-11-15T10:10:58;95497.63;;;24.61
67966;BMP280;54749;47.850;9.002;2022-11-15T10:13:46;95497.56;;;23.39
67966;BMP280;54749;47.850;9.002;2022-11-15T10:24:35;95566.41;;;17.50
67966;BMP280;54749;47.850;9.002;2022-11-15T10:27:10;95545.94;;;16.89
67966;BMP280;54749;47.850;9.002;2022-11-15T10:30:04;95552.69;;;16.51
67966;BMP280;54749;47.850;9.002;2022-11-15T10:32:36;95550.91;;;16.20
67966;BMP280;54749;47.850;9.002;2022-11-15T10:35:23;95541.16;;;15.93
67966;BMP280;54749;47.850;9.002;2022-11-15T10:37:50;95545.72;;;15.81
67966;BMP280;54749;47.850;9.002;2022-11-15T10:40:20;95537.75;;;15.84
67966;BMP280;54749;47.850;9.002;2022-11-15T10:43:03;95544.63;;;15.84
67966;BMP280;54749;47.850;9.002;2022-11-15T10:45:32;95547.56;;;15.56
67966;BMP280;54749;47.850;9.002;2022-11-15T10:50:41;95548.00;;;15.11
67966;BMP280;54749;47.850;9.002;2022-11-15T10:53:29;95553.66;;;14.98
67966;BMP280;54749;47.850;9.002;2022-11-15T10:56:02;95542.88;;;15.04
67966;BMP280;54749;47.850;9.002;2022-11-15T10:58:41;95550.78;;;14.93
67966;BMP280;54749;47.850;9.002;2022-11-15T11:01:19;95550.34;;;14.80
67966;BMP280;54749;47.850;9.002;2022-11-15T11:04:02;95543.06;;;14.60
67966;BMP280;54749;47.850;9.002;2022-11-15T11:06:30;95543.44;;;14.48
67966;BMP280;54749;47.850;9.002;2022-11-15T11:09:05;95539.09;;;14.41
67966;BMP280;54749;47.850;9.002;2022-11-15T11:11:47;95540.63;;;14.34
67966;BMP280;54749;47.850;9.002;2022-11-15T11:14:21;95535.56;;;14.17
67966;BMP280;54749;47.850;9.002;2022-11-15T11:20:20;95528.63;;;13.85
67966;BMP280;54749;47.850;9.002;2022-11-15T11:34:40;95499.94;;;14.09
67966;BMP280;54749;47.850;9.002;2022-11-15T11:37:37;95512.78;;;13.91
67966;BMP280;54749;47.850;9.002;2022-11-15T11:40:29;95509.09;;;13.59
67966;BMP280;54749;47.850;9.002;2022-11-15T11:43:28;95517.28;;;13.53
67966;BMP280;54749;47.850;9.002;2022-11-15T11:49:08;95511.00;;;13.57
67966;BMP280;54749;47.850;9.002;2022-11-15T11:51:51;95520.63;;;13.54
67966;BMP280;54749;47.850;9.002;2022-11-15T11:54:25;95522.81;;;13.49
67966;BMP280;54749;47.850;9.002;2022-11-15T11:56:58;95522.84;;;13.40
67966;BMP280;54749;47.850;9.002;2022-11-15T11:59:42;95514.66;;;13.29
67966;BMP280;54749;47.850;9.002;2022-11-15T12:05:10;95502.91;;;13.28
67966;BMP280;54749;47.850;9.002;2022-11-15T12:07:39;95499.06;;;13.41
67966;BMP280;54749;47.850;9.002;2022-11-15T12:10:24;95494.31;;;13.55
67966;BMP280;54749;47.850;9.002;2022-11-15T12:13:00;95489.00;;;13.48
67966;BMP280;54749;47.850;9.002;2022-11-15T12:15:37;95498.56;;;13.37
67966;BMP280;54749;47.850;9.002;2022-11-15T12:18:08;95499.41;;;13.29
67966;BMP280;54749;47.850;9.002;2022-11-15T12:20:41;95489.75;;;13.15
67966;BMP280;54749;47.850;9.002;2022-11-15T12:23:20;95491.31;;;13.16
67966;BMP280;54749;47.850;9.002;2022-11-15T12:31:15;95461.41;;;12.93
67966;BMP280;54749;47.850;9.002;2022-11-15T12:33:46;95455.41;;;12.94
67966;BMP280;54749;47.850;9.002;2022-11-15T12:39:00;95460.28;;;13.05
67966;BMP280;54749;47.850;9.002;2022-11-15T13:02:20;95404.75;;;13.02
67966;BMP280;54749;47.850;9.002;2022-11-15T13:04:49;95400.69;;;12.92
67966;BMP280;54749;47.850;9.002;2022-11-15T13:07:55;95390.44;;;12.84
67966;BMP280;54749;47.850;9.002;2022-11-15T13:15:52;95386.78;;;12.69
67966;BMP280;54749;47.850;9.002;2022-11-15T13:18:38;95376.94;;;12.66
67966;BMP280;54749;47.850;9.002;2022-11-15T13:21:20;95386.28;;;12.66
67966;BMP280;54749;47.850;9.002;2022-11-15T13:24:12;95380.97;;;12.60
67966;BMP280;54749;47.850;9.002;2022-11-15T13:26:40;95386.56;;;12.54
67966;BMP280;54749;47.850;9.002;2022-11-15T13:29:18;95387.38;;;12.54
67966;BMP280;54749;47.850;9.002;2022-11-15T13:31:46;95371.66;;;12.51
67966;BMP280;54749;47.850;9.002;2022-11-15T13:34:25;95370.06;;;12.50
67966;BMP280;54749;47.850;9.002;2022-11-15T13:37:29;95385.28;;;12.41
67966;BMP280;54749;47.850;9.002;2022-11-15T13:40:10;95375.19;;;12.31
67966;BMP280;54749;47.850;9.002;2022-11-15T13:42:42;95382.41;;;12.26
67966;BMP280;54749;47.850;9.002;2022-11-15T13:45:14;95376.31;;;12.20
67966;BMP280;54749;47.850;9.002;2022-11-15T13:47:42;95381.91;;;12.14
67966;BMP280;54749;47.850;9.002;2022-11-15T13:50:13;95371.00;;;12.04
67966;BMP280;54749;47.850;9.002;2022-11-15T13:52:43;95371.03;;;11.95
67966;BMP280;54749;47.850;9.002;2022-11-15T13:55:19;95366.94;;;11.85
67966;BMP280;54749;47.850;9.002;2022-11-15T13:57:51;95366.16;;;11.75
67966;BMP280;54749;47.850;9.002;2022-11-15T14:03:07;95362.59;;;11.68
67966;BMP280;54749;47.850;9.002;2022-11-15T14:05:34;95356.47;;;11.61
67966;BMP280;54749;47.850;9.002;2022-11-15T14:10:46;95349.84;;;11.42
67966;BMP280;54749;47.850;9.002;2022-11-15T14:13:40;95350.47;;;11.44
67966;BMP280;54749;47.850;9.002;2022-11-15T14:16:20;95354.91;;;11.42
67966;BMP280;54749;47.850;9.002;2022-11-15T14:18:50;95345.81;;;11.39
67966;BMP280;54749;47.850;9.002;2022-11-15T14:21:18;95333.34;;;11.38
67966;BMP280;54749;47.850;9.002;2022-11-15T14:23:46;95341.56;;;11.40
67966;BMP280;54749;47.850;9.002;2022-11-15T14:26:45;95331.34;;;11.32
67966;BMP280;54749;47.850;9.002;2022-11-15T14:29:25;95330.81;;;11.29
67966;BMP280;54749;47.850;9.002;2022-11-15T14:32:13;95328.25;;;11.20
67966;BMP280;54749;47.850;9.002;2022-11-15T14:34:41;95326.91;;;11.16
67966;BMP280;54749;47.850;9.002;2022-11-15T14:37:36;95316.00;;;11.06
67966;BMP280;54749;47.850;9.002;2022-11-15T14:40:05;95323.19;;;11.01
67966;BMP280;54749;47.850;9.002;2022-11-15T14:42:32;95310.94;;;10.97
67966;BMP280;54749;47.850;9.002;2022-11-15T14:44:59;95305.25;;;10.95
67966;BMP280;54749;47.850;9.002;2022-11-15T14:47:26;95312.25;;;10.91
67966;BMP280;54749;47.850;9.002;2022-11-15T14:49:52;95297.38;;;10.88
67966;BMP280;54749;47.850;9.002;2022-11-15T14:52:30;95300.69;;;10.89
67966;BMP280;54749;47.850;9.002;2022-11-15T14:55:01;95295.78;;;10.87
67966;BMP280;54749;47.850;9.002;2022-11-15T14:57:29;95301.91;;;10.85
67966;BMP280;54749;47.850;9.002;2022-11-15T14:59:56;95311.34;;;10.83
67966;BMP280;54749;47.850;9.002;2022-11-15T15:02:37;95290.31;;;10.83
67966;BMP280;54749;47.850;9.002;2022-11-15T15:05:14;95286.22;;;10.82
67966;BMP280;54749;47.850;9.002;2022-11-15T15:07:41;95282.19;;;10.79
67966;BMP280;54749;47.850;9.002;2022-11-15T15:10:09;95273.97;;;10.77
67966;BMP280;54749;47.850;9.002;2022-11-15T15:12:56;95263.72;;;10.79
67966;BMP280;54749;47.850;9.002;2022-11-15T15:15:33;95273.28;;;10.75
67966;BMP280;54749;47.850;9.002;2022-11-15T15:18:01;95269.44;;;10.71
67966;BMP280;54749;47.850;9.002;2022-11-15T15:20:28;95255.34;;;10.69
67966;BMP280;54749;47.850;9.002;2022-11-15T15:22:55;95255.59;;;10.66
67966;BMP280;54749;47.850;9.002;2022-11-15T15:25:24;95247.38;;;10.64
67966;BMP280;54749;47.850;9.002;2022-11-15T15:27:54;95252.66;;;10.61
67966;BMP280;54749;47.850;9.002;2022-11-15T15:30:22;95250.28;;;10.60
67966;BMP280;54749;47.850;9.002;2022-11-15T15:32:49;95240.44;;;10.57
67966;BMP280;54749;47.850;9.002;2022-11-15T15:35:18;95234.31;;;10.50
67966;BMP280;54749;47.850;9.002;2022-11-15T15:37:46;95238.16;;;10.45
67966;BMP280;54749;47.850;9.002;2022-11-15T15:40:21;95234.97;;;10.43
67966;BMP280;54749;47.850;9.002;2022-11-15T15:42:49;95239.63;;;10.38
67966;BMP280;54749;47.850;9.002;2022-11-15T15:45:17;95242.41;;;10.35
67966;BMP280;54749;47.850;9.002;2022-11-15T15:47:45;95232.69;;;10.31
67966;BMP280;54749;47.850;9.002;2022-11-15T15:50:33;95215.28;;;10.28
67966;BMP280;54749;47.850;9.002;2022-11-15T15:53:03;95209.59;;;10.26
67966;BMP280;54749;47.850;9.002;2022-11-15T15:55:30;95204.66;;;10.24
67966;BMP280;54749;47.850;9.002;2022-11-15T15:57:57;95192.94;;;10.23
67966;BMP280;54749;47.850;9.002;2022-11-15T16:00:25;95207.69;;;10.18
67966;BMP280;54749;47.850;9.002;2022-11-15T16:02:53;95203.19;;;10.13
67966;BMP280;54749;47.850;9.002;2022-11-15T16:05:21;95199.28;;;10.09
67966;BMP280;54749;47.850;9.002;2022-11-15T16:07:49;95202.09;;;10.06
67966;BMP280;54749;47.850;9.002;2022-11-15T16:10:30;95193.06;;;10.03
67966;BMP280;54749;47.850;9.002;2022-11-15T16:12:57;95180.84;;;9.99
67966;BMP280;54749;47.850;9.002;2022-11-15T16:15:27;95187.72;;;9.97
67966;BMP280;54749;47.850;9.002;2022-11-15T16:17:56;95179.63;;;9.94
67966;BMP280;54749;47.850;9.002;2022-11-15T16:22:58;95164.59;;;9.92
67966;BMP280;54749;47.850;9.002;2022-11-15T16:25:53;95157.16;;;9.81
67966;BMP280;54749;47.850;9.002;2022-11-15T16:28:22;95159.88;;;9.69
67966;BMP280;54749;47.850;9.002;2022-11-15T16:30:59;95162.13;;;9.63
67966;BMP280;54749;47.850;9.002;2022-11-15T16:33:26;95162.63;;;9.57
67966;BMP280;54749;47.850;9.002;2022-11-15T16:35:53;95155.72;;;9.59
67966;BMP280;54749;47.850;9.002;2022-11-15T16:38:20;95158.66;;;9.64
67966;BMP280;54749;47.850;9.002;2022-11-15T16:40:47;95155.88;;;9.67
67966;BMP280;54749;47.850;9.002;2022-11-15T16:43:14;95149.53;;;9.72
67966;BMP280;54749;47.850;9.002;2022-11-15T16:45:41;95137.84;;;9.71
67966;BMP280;54749;47.850;9.002;2022-11-15T16:48:20;95150.56;;;9.70
67966;BMP280;54749;47.850;9.002;2022-11-15T16:50:47;95137.16;;;9.60
67966;BMP280;54749;47.850;9.002;2022-11-15T16:53:14;95141.78;;;9.55
67966;BMP280;54749;47.850;9.002;2022-11-15T16:55:41;95124.13;;;9.55
67966;BMP280;54749;47.850;9.002;2022-11-15T16:58:08;95118.28;;;9.55
67966;BMP280;54749;47.850;9.002;2022-11-15T17:00:36;95124.66;;;9.59
67966;BMP280;54749;47.850;9.002;2022-11-15T17:03:03;95122.03;;;9.60
67966;BMP280;54749;47.850;9.002;2022-11-15T17:05:30;95120.16;;;9.62
67966;BMP280;54749;47.850;9.002;2022-11-15T17:07:57;95115.09;;;9.62
67966;BMP280;54749;47.850;9.002;2022-11-15T17:10:25;95121.88;;;9.62
67966;BMP280;54749;47.850;9.002;2022-11-15T17:12:54;95112.84;;;9.59
67966;BMP280;54749;47.850;9.002;2022-11-15T17:15:21;95095.19;;;9.59
67966;BMP280;54749;47.850;9.002;2022-11-15T17:17:51;95095.19;;;9.59
67966;BMP280;54749;47.850;9.002;2022-11-15T17:20:21;95093.72;;;9.57
67966;BMP280;54749;47.850;9.002;2022-11-15T17:22:49;95107.25;;;9.46
67966;BMP280;54749;47.850;9.002;2022-11-15T17:25:16;95105.38;;;9.39
67966;BMP280;54749;47.850;9.002;2022-11-15T17:27:43;95103.91;;;9.37
67966;BMP280;54749;47.850;9.002;2022-11-15T17:30:11;95092.91;;;9.38
67966;BMP280;54749;47.850;9.002;2022-11-15T17:32:41;95098.34;;;9.43